Time;durP1;ratioP1;P1;durP2;ratioP2;P2;SDS_P1;SDS_P2;PMS_P1;PMS_P2;Temp;Humidity;BMP_temperature;BMP_pressure;BME280_temperature;BME280_humidity;BME280_pressure;Samples;Min_cycle;Max_cycle;Signal;HPM_P1;HPM_P2
2022/04/15 00:01:29;;;;;;;23.08;3.20;;;31.70;16.40;;;;;;5111522;27;20123;-66
2022/04/15 00:03:58;;;;;;;22.13;2.88;;;31.60;16.40;;;;;;5106684;28;20072;-64
2022/04/15 00:06:25;;;;;;;16.17;3.22;;;31.70;16.40;;;;;;5106047;28;20076;-62
2022/04/15 00:08:51;;;;;;;16.60;3.42;;;31.70;16.20;;;;;;5107899;28;20078;-61
2022/04/15 00:11:18;;;;;;;12.63;2.72;;;31.70;16.10;;;;;;5089520;28;20082;-61
2022/04/15 00:13:45;;;;;;;20.23;3.28;;;31.60;16.10;;;;;;5088594;28;20111;-62
2022/04/15 00:16:12;;;;;;;18.20;3.28;;;31.60;16.20;;;;;;5107991;28;20119;-61
2022/04/15 00:18:39;;;;;;;24.48;3.42;;;31.70;16.40;;;;;;5105952;28;20549;-57
2022/04/15 00:21:05;;;;;;;23.60;3.83;;;31.60;16.10;;;;;;5105403;28;20082;-62
2022/04/15 00:23:32;;;;;;;17.20;2.90;;;31.40;16.10;;;;;;5106696;28;20073;-63
2022/04/15 00:25:59;;;;;;;17.88;2.50;;;31.50;16.00;;;;;;5105740;28;20074;-63
2022/04/15 00:28:26;;;;;;;18.63;2.78;;;31.30;15.90;;;;;;5104926;28;20574;-60
2022/04/15 00:30:53;;;;;;;21.35;3.30;;;31.30;16.40;;;;;;5104760;28;20067;-61
2022/04/15 00:33:21;;;;;;;30.73;3.72;;;31.10;16.50;;;;;;5111127;28;20082;-60
2022/04/15 00:35:48;;;;;;;11.68;3.42;;;31.00;16.90;;;;;;5106172;28;20093;-60
2022/04/15 00:38:14;;;;;;;18.88;3.60;;;30.90;16.70;;;;;;5087851;28;20081;-60
2022/04/15 00:40:41;;;;;;;16.42;3.22;;;30.90;16.80;;;;;;5090651;28;20070;-59
2022/04/15 00:43:07;;;;;;;20.42;2.75;;;30.90;16.80;;;;;;5091668;28;20103;-60
2022/04/15 00:45:33;;;;;;;12.05;2.53;;;30.80;16.50;;;;;;5092986;28;20072;-64
2022/04/15 00:48:00;;;;;;;17.85;2.50;;;30.70;16.40;;;;;;5090683;28;20106;-61
2022/04/15 00:50:32;;;;;;;21.98;3.42;;;30.60;16.50;;;;;;5091603;28;20561;-62
2022/04/15 00:53:01;;;;;;;22.77;3.45;;;30.50;16.40;;;;;;5093055;28;20433;-62
2022/04/15 00:55:28;;;;;;;19.67;2.47;;;30.50;16.10;;;;;;5093188;28;20064;-62
2022/04/15 00:57:59;;;;;;;12.35;3.13;;;30.50;16.20;;;;;;5091104;28;20433;-62
2022/04/15 01:00:27;;;;;;;15.60;2.83;;;30.40;16.00;;;;;;5075200;28;20067;-62
2022/04/15 01:02:56;;;;;;;11.18;2.50;;;30.30;15.50;;;;;;5075859;28;20075;-64
2022/04/15 01:05:23;;;;;;;15.05;3.08;;;30.20;15.50;;;;;;5109470;28;20519;-63
2022/04/15 01:07:52;;;;;;;17.90;2.85;;;30.20;15.90;;;;;;5080858;28;20090;-64
2022/04/15 01:10:20;;;;;;;19.33;3.20;;;30.10;15.70;;;;;;5105481;28;20096;-64
2022/04/15 01:12:56;;;;;;;22.45;4.10;;;30.00;15.90;;;;;;5107507;28;20085;-62
2022/04/15 01:15:26;;;;;;;19.00;3.80;;;29.90;15.70;;;;;;5092487;28;20057;-62
2022/04/15 01:17:54;;;;;;;20.67;3.60;;;29.90;16.00;;;;;;5074916;28;20095;-63
2022/04/15 01:20:21;;;;;;;11.77;2.70;;;29.60;16.40;;;;;;5102221;28;20163;-64
2022/04/15 01:22:49;;;;;;;8.23;2.58;;;29.70;16.50;;;;;;5077467;28;20133;-64
2022/04/15 01:25:17;;;;;;;19.75;2.67;;;29.60;16.50;;;;;;5074059;28;20507;-64
2022/04/15 01:27:48;;;;;;;16.08;3.10;;;29.40;16.90;;;;;;5074256;28;20106;-64
2022/04/15 01:30:17;;;;;;;15.50;3.30;;;29.20;17.10;;;;;;5073932;28;20762;-64
2022/04/15 01:32:44;;;;;;;19.38;2.53;;;29.10;17.20;;;;;;5090319;28;20064;-66
2022/04/15 01:35:12;;;;;;;16.80;3.30;;;29.00;17.40;;;;;;5091103;28;20081;-64
2022/04/15 01:37:40;;;;;;;15.93;2.80;;;28.80;17.60;;;;;;5104010;28;20532;-64
2022/04/15 01:40:08;;;;;;;13.25;2.90;;;28.70;17.70;;;;;;5092716;28;20078;-63
2022/04/15 01:42:36;;;;;;;14.48;3.20;;;28.60;17.80;;;;;;5073478;28;20133;-64
2022/04/15 01:45:04;;;;;;;9.35;2.60;;;28.50;17.90;;;;;;5091215;28;20122;-64
2022/04/15 01:47:31;;;;;;;12.82;2.75;;;28.40;18.00;;;;;;5091932;28;20106;-66
2022/04/15 01:49:58;;;;;;;19.85;2.58;;;28.30;18.10;;;;;;5089592;28;20070;-65
2022/04/15 01:52:24;;;;;;;22.58;2.92;;;28.20;18.40;;;;;;5089833;28;20124;-64
2022/04/15 01:54:51;;;;;;;24.52;3.35;;;28.20;18.50;;;;;;5094446;28;20100;-64
2022/04/15 01:57:17;;;;;;;33.88;4.40;;;28.10;18.30;;;;;;5108164;28;20086;-65
2022/04/15 01:59:44;;;;;;;29.00;4.60;;;28.00;18.30;;;;;;5090483;28;20070;-66
2022/04/15 02:02:11;;;;;;;25.08;5.32;;;27.90;18.50;;;;;;5089369;28;20170;-66
2022/04/15 02:04:37;;;;;;;37.35;5.07;;;27.80;18.70;;;;;;5090261;28;20082;-70
2022/04/15 02:07:04;;;;;;;29.50;4.90;;;27.70;18.90;;;;;;5089522;28;20071;-66
2022/04/15 02:09:31;;;;;;;37.75;5.40;;;27.60;18.90;;;;;;5094430;28;20068;-66
2022/04/15 02:11:57;;;;;;;31.83;5.68;;;27.50;19.10;;;;;;5096741;28;20120;-69
2022/04/15 02:14:24;;;;;;;43.42;6.53;;;27.40;18.60;;;;;;5090063;28;20545;-66
2022/04/15 02:16:54;;;;;;;33.72;6.43;;;27.30;19.20;;;;;;5089780;28;20079;-68
2022/04/15 02:19:21;;;;;;;38.75;8.32;;;27.20;18.90;;;;;;5090802;28;20081;-68
2022/04/15 02:21:48;;;;;;;41.05;8.85;;;27.10;18.90;;;;;;5087721;28;20659;-69
2022/04/15 02:24:15;;;;;;;51.55;9.55;;;27.00;19.00;;;;;;5088391;28;20063;-69
2022/04/15 02:26:42;;;;;;;35.05;8.60;;;26.90;19.10;;;;;;5089389;28;20067;-70
2022/04/15 02:29:10;;;;;;;32.70;6.10;;;26.80;19.20;;;;;;5090248;28;20103;-67
2022/04/15 02:31:36;;;;;;;27.85;4.75;;;26.70;19.20;;;;;;5089879;28;20068;-69
2022/04/15 02:34:03;;;;;;;19.88;4.05;;;26.60;19.00;;;;;;5089597;28;20113;-68
2022/04/15 02:36:29;;;;;;;29.90;4.50;;;26.50;18.90;;;;;;5088361;28;20493;-69
2022/04/15 02:38:56;;;;;;;21.52;5.45;;;26.50;19.10;;;;;;5073176;28;20167;-66
2022/04/15 02:41:22;;;;;;;22.33;5.60;;;26.40;19.20;;;;;;5090352;28;20078;-66
2022/04/15 02:43:49;;;;;;;27.48;5.43;;;26.40;18.90;;;;;;5089167;28;20074;-66
2022/04/15 02:46:15;;;;;;;37.42;6.82;;;26.40;18.90;;;;;;5089996;28;20071;-67
2022/04/15 02:48:42;;;;;;;31.10;6.80;;;26.30;19.20;;;;;;5089285;28;20083;-68
2022/04/15 02:51:08;;;;;;;31.48;7.50;;;26.20;19.30;;;;;;5088666;28;20074;-65
2022/04/15 02:53:35;;;;;;;29.45;7.32;;;26.20;19.60;;;;;;5089540;28;20076;-68
2022/04/15 02:56:01;;;;;;;36.60;8.73;;;26.10;19.50;;;;;;5089178;28;20071;-68
2022/04/15 02:58:28;;;;;;;27.10;6.30;;;26.00;19.40;;;;;;5089532;28;20104;-67
2022/04/15 03:00:54;;;;;;;25.63;5.43;;;25.90;19.70;;;;;;5090184;28;20158;-68
2022/04/15 03:03:21;;;;;;;20.10;4.95;;;25.80;20.50;;;;;;5087974;28;20071;-66
2022/04/15 03:05:47;;;;;;;24.70;4.78;;;25.80;21.10;;;;;;5087930;28;20154;-68
2022/04/15 03:08:13;;;;;;;21.75;4.10;;;25.70;21.50;;;;;;5074587;28;20086;-67
2022/04/15 03:10:40;;;;;;;19.05;3.60;;;25.70;22.50;;;;;;5103215;28;20532;-69
2022/04/15 03:13:06;;;;;;;13.20;3.60;;;25.70;22.90;;;;;;5087931;28;20135;-68
2022/04/15 03:15:33;;;;;;;22.90;3.90;;;25.60;23.10;;;;;;5089278;28;20074;-69
2022/04/15 03:17:59;;;;;;;14.98;3.28;;;25.60;23.40;;;;;;5088611;28;20371;-67
2022/04/15 03:20:25;;;;;;;14.50;3.90;;;25.50;23.60;;;;;;5087785;28;20152;-67
2022/04/15 03:22:52;;;;;;;17.92;3.63;;;25.40;23.80;;;;;;5089177;28;20076;-69
2022/04/15 03:25:18;;;;;;;20.85;3.80;;;25.30;24.00;;;;;;5089853;28;20086;-69
2022/04/15 03:27:47;;;;;;;25.35;3.75;;;25.20;24.50;;;;;;5088365;28;20198;-67
2022/04/15 03:30:14;;;;;;;16.98;3.38;;;25.20;24.60;;;;;;5089208;28;20067;-69
2022/04/15 03:32:47;;;;;;;21.65;3.45;;;25.10;24.30;;;;;;5088750;28;20160;-67
2022/04/15 03:35:16;;;;;;;13.07;3.60;;;25.00;24.30;;;;;;5088782;28;20860;-68
2022/04/15 03:37:42;;;;;;;10.70;3.17;;;25.00;24.30;;;;;;5104710;28;20088;-67
2022/04/15 03:40:09;;;;;;;13.77;3.35;;;24.90;24.30;;;;;;5088149;28;20082;-69
2022/04/15 03:42:50;;;;;;;18.98;3.50;;;24.90;24.40;;;;;;5088816;28;20093;-65
2022/04/15 03:45:19;;;;;;;20.27;3.58;;;24.80;24.50;;;;;;5088044;28;20091;-67
2022/04/15 03:47:49;;;;;;;21.08;4.35;;;24.70;24.50;;;;;;5087817;28;20544;-67
2022/04/15 03:50:17;;;;;;;12.80;3.45;;;24.50;24.30;;;;;;5086880;28;20084;-70
2022/04/15 03:52:48;;;;;;;16.15;4.30;;;24.50;24.50;;;;;;5088425;28;20068;-66
2022/04/15 03:55:20;;;;;;;16.00;3.78;;;24.40;24.60;;;;;;5087849;28;20542;-67
2022/04/15 03:57:47;;;;;;;15.50;4.28;;;24.40;24.90;;;;;;5088693;28;20436;-68
2022/04/15 04:00:22;;;;;;;21.40;4.25;;;24.40;25.30;;;;;;5089986;28;20102;-68
2022/04/15 04:02:51;;;;;;;19.70;4.30;;;24.30;24.90;;;;;;5089437;28;20071;-66
2022/04/15 04:05:18;;;;;;;18.67;3.75;;;24.10;24.30;;;;;;5089194;28;20179;-66
2022/04/15 04:07:45;;;;;;;19.77;3.33;;;24.10;23.80;;;;;;5087491;28;20480;-66
2022/04/15 04:10:13;;;;;;;11.43;2.78;;;24.10;23.70;;;;;;5089109;28;20522;-69
2022/04/15 04:12:40;;;;;;;13.45;3.28;;;24.10;23.60;;;;;;5071203;28;20067;-67
2022/04/15 04:15:07;;;;;;;24.30;3.25;;;24.10;24.10;;;;;;5073476;28;20404;-69
2022/04/15 04:17:34;;;;;;;11.50;3.35;;;24.00;23.70;;;;;;5093472;28;20554;-70
2022/04/15 04:20:01;;;;;;;16.48;3.67;;;24.00;23.80;;;;;;5075883;28;20129;-69
2022/04/15 04:22:32;;;;;;;13.52;3.20;;;24.00;23.90;;;;;;5091933;28;20452;-69
2022/04/15 04:24:58;;;;;;;9.93;3.50;;;23.90;24.00;;;;;;5091050;28;20074;-69
2022/04/15 04:27:25;;;;;;;19.33;4.10;;;23.90;24.30;;;;;;5091749;28;20107;-66
2022/04/15 04:29:52;;;;;;;13.45;3.40;;;23.90;24.50;;;;;;5091773;28;20067;-68
2022/04/15 04:32:19;;;;;;;14.85;3.33;;;23.80;24.90;;;;;;5090037;28;20593;-67
2022/04/15 04:34:46;;;;;;;13.70;3.25;;;23.70;25.30;;;;;;5075644;28;20436;-71
2022/04/15 04:37:15;;;;;;;19.55;3.13;;;23.70;25.60;;;;;;5091559;28;20729;-69
2022/04/15 04:39:41;;;;;;;22.40;4.28;;;23.50;26.20;;;;;;5093116;28;20159;-67
2022/04/15 04:42:08;;;;;;;17.30;4.18;;;23.30;26.80;;;;;;5093423;28;20111;-71
2022/04/15 04:44:39;;;;;;;20.75;4.53;;;23.20;28.20;;;;;;5090448;28;20064;-68
2022/04/15 04:47:09;;;;;;;29.50;4.78;;;23.00;28.80;;;;;;5074337;28;20533;-66
2022/04/15 04:49:37;;;;;;;23.80;4.35;;;22.90;29.40;;;;;;5092250;28;20078;-71
2022/04/15 04:52:07;;;;;;;27.33;4.00;;;22.80;30.40;;;;;;5057250;28;20099;-68
2022/04/15 04:54:34;;;;;;;19.27;3.85;;;22.70;30.40;;;;;;5091657;28;20068;-67
2022/04/15 04:57:01;;;;;;;14.70;3.78;;;22.70;30.60;;;;;;5092079;28;20067;-65
2022/04/15 04:59:29;;;;;;;20.45;3.20;;;22.60;30.80;;;;;;5090351;28;20513;-66
2022/04/15 05:01:56;;;;;;;16.02;3.22;;;22.50;31.20;;;;;;5074883;28;20083;-65
2022/04/15 05:04:22;;;;;;;12.70;2.88;;;22.40;31.30;;;;;;5074809;28;20075;-67
2022/04/15 05:06:48;;;;;;;19.33;3.05;;;22.30;31.40;;;;;;5089404;28;20064;-67
2022/04/15 05:09:15;;;;;;;17.73;3.13;;;22.20;31.60;;;;;;5073280;28;20088;-67
2022/04/15 05:11:42;;;;;;;19.38;3.67;;;22.10;31.60;;;;;;5091498;28;20064;-68
2022/04/15 05:14:09;;;;;;;14.60;3.42;;;22.00;31.80;;;;;;5091008;28;20178;-68
2022/04/15 05:16:35;;;;;;;15.68;3.53;;;22.00;31.70;;;;;;5089952;28;20201;-69
2022/04/15 05:19:01;;;;;;;14.57;3.08;;;22.00;31.50;;;;;;5091763;28;20530;-68
2022/04/15 05:21:28;;;;;;;16.23;3.63;;;22.00;31.20;;;;;;5092831;28;20084;-66
2022/04/15 05:23:54;;;;;;;13.38;2.75;;;21.90;30.90;;;;;;5090628;28;20514;-67
2022/04/15 05:26:21;;;;;;;18.23;3.00;;;21.80;30.70;;;;;;5090026;28;20603;-67
2022/04/15 05:28:47;;;;;;;15.95;3.25;;;21.80;30.70;;;;;;5091075;28;20126;-68
2022/04/15 05:31:13;;;;;;;16.08;3.50;;;21.80;30.80;;;;;;5091814;28;20065;-67
2022/04/15 05:33:40;;;;;;;12.77;2.90;;;21.80;30.90;;;;;;5091650;28;20079;-66
2022/04/15 05:36:06;;;;;;;21.35;3.17;;;21.70;30.80;;;;;;5091453;28;20222;-65
2022/04/15 05:38:32;;;;;;;12.00;3.08;;;21.80;30.60;;;;;;5090646;28;20117;-66
2022/04/15 05:40:59;;;;;;;16.88;3.65;;;21.80;30.60;;;;;;5091389;28;20072;-70
2022/04/15 05:43:25;;;;;;;19.25;3.58;;;21.80;30.70;;;;;;5090465;28;20546;-67
2022/04/15 05:45:52;;;;;;;20.10;2.97;;;21.70;31.00;;;;;;5089574;28;20437;-67
2022/04/15 05:48:18;;;;;;;19.40;5.70;;;21.60;31.30;;;;;;5090530;28;20088;-71
2022/04/15 05:50:44;;;;;;;32.70;9.50;;;21.60;31.50;;;;;;5090278;28;20076;-68
2022/04/15 05:53:14;;;;;;;33.40;14.43;;;21.60;31.50;;;;;;5088849;28;20103;-67
2022/04/15 05:55:40;;;;;;;21.75;3.47;;;21.60;30.90;;;;;;5076079;28;20149;-67
2022/04/15 05:58:10;;;;;;;18.83;2.95;;;21.70;30.30;;;;;;5091683;28;20088;-66
2022/04/15 06:00:39;;;;;;;24.15;3.15;;;21.60;30.00;;;;;;5089873;28;20088;-68
2022/04/15 06:03:09;;;;;;;13.95;3.67;;;21.60;29.80;;;;;;5089491;28;20080;-67
2022/04/15 06:05:35;;;;;;;23.05;3.70;;;21.70;29.40;;;;;;5090266;28;20068;-66
2022/04/15 06:08:02;;;;;;;20.50;3.53;;;21.70;29.40;;;;;;5089512;28;20561;-68
2022/04/15 06:10:30;;;;;;;13.55;3.20;;;21.70;29.50;;;;;;5089715;28;20073;-68
2022/04/15 06:13:19;;;;;;;16.60;3.50;;;21.70;29.40;;;;;;5088574;28;20436;-65
2022/04/15 06:15:56;;;;;;;14.35;2.95;;;21.70;29.30;;;;;;5090445;28;20526;-69
2022/04/15 06:18:24;;;;;;;26.90;3.40;;;21.60;29.00;;;;;;5089484;28;20580;-67
2022/04/15 06:20:51;;;;;;;13.82;3.72;;;21.60;29.00;;;;;;5072012;28;20164;-63
2022/04/15 06:23:18;;;;;;;23.88;3.40;;;21.60;28.90;;;;;;5091004;28;20081;-63
2022/04/15 06:25:46;;;;;;;18.38;3.20;;;21.70;29.00;;;;;;5090311;28;20110;-64
2022/04/15 06:28:13;;;;;;;17.83;3.08;;;21.70;28.80;;;;;;5074842;28;20108;-66
2022/04/15 06:30:39;;;;;;;19.08;2.85;;;21.70;28.60;;;;;;5087889;28;20180;-65
2022/04/15 06:33:08;;;;;;;19.50;3.22;;;21.70;28.60;;;;;;5087608;28;20080;-64
2022/04/15 06:35:36;;;;;;;10.23;2.42;;;21.70;28.60;;;;;;5089066;28;20143;-65
2022/04/15 06:38:02;;;;;;;23.90;2.28;;;21.70;28.80;;;;;;5085596;28;20073;-65
2022/04/15 06:40:29;;;;;;;14.02;2.42;;;21.70;29.10;;;;;;5087593;28;20090;-63
2022/04/15 06:42:55;;;;;;;13.23;2.55;;;21.60;29.30;;;;;;5089690;28;20099;-65
2022/04/15 06:45:22;;;;;;;14.90;2.45;;;21.50;29.50;;;;;;5092811;28;20423;-65
2022/04/15 06:47:48;;;;;;;9.73;2.15;;;21.50;29.70;;;;;;5089836;28;20100;-63
2022/04/15 06:50:16;;;;;;;8.25;2.42;;;21.40;29.70;;;;;;5088334;28;20163;-66
2022/04/15 06:52:43;;;;;;;10.55;2.65;;;21.40;29.80;;;;;;5087455;28;20085;-65
2022/04/15 06:55:09;;;;;;;14.65;2.05;;;21.30;29.80;;;;;;5069958;28;20108;-64
2022/04/15 06:57:35;;;;;;;6.75;2.20;;;21.40;30.30;;;;;;5089875;28;20100;-63
2022/04/15 07:00:03;;;;;;;12.52;2.42;;;21.40;29.90;;;;;;5089825;28;20104;-65
2022/04/15 07:02:30;;;;;;;14.23;2.85;;;21.30;29.70;;;;;;5087168;28;20080;-66
2022/04/15 07:04:56;;;;;;;11.40;2.63;;;21.30;29.60;;;;;;5071157;28;20142;-64
2022/04/15 07:07:22;;;;;;;16.30;2.20;;;21.30;30.00;;;;;;5087827;28;20085;-64
2022/04/15 07:09:50;;;;;;;7.05;2.10;;;21.20;30.30;;;;;;5088767;28;20088;-63
2022/04/15 07:12:17;;;;;;;11.82;2.80;;;21.10;30.40;;;;;;5071167;28;20076;-67
2022/04/15 07:14:44;;;;;;;9.93;1.98;;;20.90;30.00;;;;;;5070923;28;20091;-63
2022/04/15 07:17:10;;;;;;;22.42;2.53;;;20.90;29.90;;;;;;5088609;28;20129;-66
2022/04/15 07:19:37;;;;;;;8.15;2.13;;;20.80;29.90;;;;;;5088362;28;20075;-65
2022/04/15 07:22:05;;;;;;;8.77;2.40;;;20.70;30.00;;;;;;5087733;28;20077;-66
2022/04/15 07:24:34;;;;;;;8.45;2.28;;;20.70;30.20;;;;;;5087555;28;20105;-57
2022/04/15 07:27:00;;;;;;;11.60;2.50;;;20.80;30.20;;;;;;5087261;28;20065;-55
2022/04/15 07:29:28;;;;;;;8.27;2.45;;;21.00;30.20;;;;;;5086511;28;20084;-57
2022/04/15 07:31:54;;;;;;;12.50;2.83;;;21.20;30.00;;;;;;5089212;28;20198;-58
2022/04/15 07:34:20;;;;;;;9.15;2.50;;;21.20;29.50;;;;;;5087218;28;20075;-61
2022/04/15 07:36:53;;;;;;;22.77;3.75;;;21.30;29.50;;;;;;5087050;28;20073;-61
2022/04/15 07:39:20;;;;;;;8.90;2.67;;;21.30;29.40;;;;;;5087518;28;20081;-62
2022/04/15 07:41:48;;;;;;;12.63;2.80;;;21.40;29.70;;;;;;5068643;28;20069;-59
2022/04/15 07:44:14;;;;;;;13.68;3.58;;;21.50;29.60;;;;;;5088778;28;20080;-60
2022/04/15 07:46:42;;;;;;;15.73;2.92;;;21.40;29.20;;;;;;5090643;28;20081;-59
2022/04/15 07:49:09;;;;;;;13.63;2.30;;;21.30;29.20;;;;;;5089985;28;20088;-59
2022/04/15 07:51:37;;;;;;;12.60;2.33;;;21.30;29.40;;;;;;5094385;28;20073;-60
2022/04/15 07:54:05;;;;;;;12.95;2.50;;;21.40;29.60;;;;;;5074911;28;20076;-62
2022/04/15 07:56:32;;;;;;;14.73;2.80;;;21.30;29.60;;;;;;5091640;28;20069;-60
2022/04/15 07:58:59;;;;;;;14.25;2.50;;;21.30;29.90;;;;;;5094002;28;20126;-61
2022/04/15 08:01:29;;;;;;;13.13;2.60;;;21.20;30.20;;;;;;5093143;28;20146;-61
2022/04/15 08:03:56;;;;;;;14.13;3.22;;;21.10;31.10;;;;;;5092093;28;20064;-62
2022/04/15 08:06:24;;;;;;;17.88;4.07;;;21.10;30.50;;;;;;5093931;28;20111;-61
2022/04/15 08:08:55;;;;;;;15.00;3.20;;;21.10;30.40;;;;;;5075745;28;20130;-63
2022/04/15 08:11:23;;;;;;;16.52;3.33;;;21.00;30.20;;;;;;5090693;28;20134;-59
2022/04/15 08:13:50;;;;;;;15.13;4.20;;;21.00;30.80;;;;;;5073410;28;20472;-60
2022/04/15 08:16:17;;;;;;;19.30;5.03;;;20.80;30.30;;;;;;5091082;28;20481;-60
2022/04/15 08:18:43;;;;;;;18.33;4.65;;;20.80;30.30;;;;;;5092533;28;20080;-62
2022/04/15 08:21:10;;;;;;;17.63;4.78;;;20.70;30.70;;;;;;5072418;28;20437;-59
2022/04/15 08:23:37;;;;;;;21.70;6.60;;;20.60;31.40;;;;;;5091397;28;20076;-59
2022/04/15 08:26:03;;;;;;;15.30;5.07;;;20.60;31.30;;;;;;5089870;28;20119;-60
2022/04/15 08:28:30;;;;;;;23.40;4.53;;;20.40;30.80;;;;;;5089384;28;20544;-60
2022/04/15 08:30:56;;;;;;;17.02;5.93;;;20.30;30.80;;;;;;5095003;28;20078;-58
2022/04/15 08:33:23;;;;;;;18.33;5.68;;;20.30;30.80;;;;;;5073869;28;20096;-60
2022/04/15 08:35:50;;;;;;;18.40;6.57;;;20.00;31.00;;;;;;5090807;28;20091;-59
2022/04/15 08:38:16;;;;;;;18.05;4.32;;;20.10;31.70;;;;;;5090740;28;20087;-59
2022/04/15 08:40:54;;;;;;;18.92;4.55;;;20.10;32.00;;;;;;5090476;28;20093;-61
2022/04/15 08:43:20;;;;;;;25.73;3.55;;;20.10;31.80;;;;;;5092527;28;20155;-61
2022/04/15 08:45:47;;;;;;;24.40;3.47;;;20.10;31.40;;;;;;5091973;28;20117;-57
2022/04/15 08:48:15;;;;;;;25.60;3.40;;;19.80;31.60;;;;;;5092235;28;20087;-59
2022/04/15 08:50:42;;;;;;;18.27;3.88;;;19.70;31.80;;;;;;5091389;28;20083;-63
2022/04/15 08:53:09;;;;;;;22.45;3.80;;;19.60;32.00;;;;;;5088471;28;21063;-60
2022/04/15 08:55:35;;;;;;;28.30;3.92;;;19.40;32.20;;;;;;5072428;28;20131;-60
2022/04/15 08:58:02;;;;;;;14.68;3.70;;;19.40;32.50;;;;;;5073782;28;20092;-60
2022/04/15 09:00:29;;;;;;;26.52;3.70;;;19.30;32.60;;;;;;5088283;28;20569;-59
2022/04/15 09:02:56;;;;;;;26.15;3.67;;;19.40;32.70;;;;;;5090334;28;20079;-62
2022/04/15 09:05:25;;;;;;;20.55;3.15;;;19.50;33.20;;;;;;5090241;28;20095;-62
2022/04/15 09:08:07;;;;;;;17.50;3.15;;;19.50;32.30;;;;;;5089920;28;20089;-60
2022/04/15 09:10:34;;;;;;;15.23;2.75;;;19.50;32.10;;;;;;5091324;28;20084;-60
2022/04/15 09:13:03;;;;;;;10.07;1.98;;;19.50;31.50;;;;;;5073488;28;20152;-61
2022/04/15 09:15:29;;;;;;;10.18;2.03;;;19.40;31.20;;;;;;5088505;28;20514;-61
2022/04/15 09:17:59;;;;;;;7.13;1.58;;;19.30;31.20;;;;;;5089991;28;20156;-59
2022/04/15 09:20:29;;;;;;;13.85;1.90;;;19.20;31.10;;;;;;5089555;28;20088;-61
2022/04/15 09:22:57;;;;;;;13.15;1.98;;;19.20;30.70;;;;;;5073864;28;20079;-59
2022/04/15 09:25:28;;;;;;;8.75;1.90;;;19.20;30.80;;;;;;5090382;28;20565;-60
2022/04/15 09:27:58;;;;;;;14.60;2.17;;;19.10;30.90;;;;;;5089623;28;20142;-60
2022/04/15 09:30:35;;;;;;;10.40;1.70;;;19.10;31.00;;;;;;5090213;28;20079;-62
2022/04/15 09:33:02;;;;;;;;;;;19.00;31.10;;;;;;5073031;28;20076;-60
2022/04/15 09:35:29;;;;;;;8.20;1.83;;;19.00;31.30;;;;;;5087836;28;19956;-59
2022/04/15 09:37:59;;;;;;;3.95;1.30;;;19.00;31.30;;;;;;5089033;28;20445;-61
2022/04/15 09:40:26;;;;;;;8.88;1.80;;;18.90;31.20;;;;;;5072328;28;20119;-60
2022/04/15 09:42:54;;;;;;;8.95;1.80;;;18.90;31.40;;;;;;5091467;28;20103;-56
2022/04/15 09:45:25;;;;;;;12.57;1.98;;;18.80;31.40;;;;;;5089111;28;20472;-61
2022/04/15 09:48:09;;;;;;;6.95;1.80;;;18.80;32.00;;;;;;5071718;28;20089;-59
2022/04/15 09:50:44;;;;;;;14.48;2.45;;;18.80;31.30;;;;;;5074138;28;20076;-60
2022/04/15 09:53:21;;;;;;;13.23;2.15;;;18.90;32.00;;;;;;5089216;28;20064;-60
2022/04/15 09:55:48;;;;;;;;;;;18.90;32.20;;;;;;5089904;28;20067;-62
2022/04/15 09:58:16;;;;;;;9.07;2.10;;;18.80;32.40;;;;;;5090042;28;19956;-61
2022/04/15 10:00:48;;;;;;;8.32;2.00;;;18.70;32.20;;;;;;5090033;28;20091;-61
2022/04/15 10:03:20;;;;;;;11.23;2.10;;;18.70;32.20;;;;;;5088407;28;20068;-62
2022/04/15 10:05:48;;;;;;;8.73;2.28;;;18.60;32.00;;;;;;5088304;28;20221;-59
2022/04/15 10:08:15;;;;;;;8.48;2.10;;;18.50;32.20;;;;;;5089147;28;20081;-61
2022/04/15 10:10:42;;;;;;;9.60;2.25;;;18.30;32.30;;;;;;5055025;28;20069;-62
2022/04/15 10:13:09;;;;;;;19.75;2.00;;;18.50;32.60;;;;;;5088139;28;20079;-63
2022/04/15 10:15:37;;;;;;;9.68;1.85;;;18.50;32.50;;;;;;5089425;28;20065;-60
2022/04/15 10:18:04;;;;;;;10.80;2.03;;;18.50;32.30;;;;;;5089883;28;20087;-61
2022/04/15 10:20:31;;;;;;;12.02;1.75;;;18.40;32.40;;;;;;5087714;28;20544;-55
2022/04/15 10:23:06;;;;;;;10.77;1.80;;;18.40;33.30;;;;;;5072207;28;20103;-64
2022/04/15 10:25:35;;;;;;;15.43;1.95;;;18.40;33.30;;;;;;5069934;28;20087;-61
2022/04/15 10:28:17;;;;;;;14.88;2.38;;;18.30;33.90;;;;;;5088177;28;20283;-58
2022/04/15 10:30:59;;;;;;;11.45;2.13;;;18.30;33.40;;;;;;5088380;28;20103;-59
2022/04/15 10:33:33;;;;;;;10.02;1.58;;;18.10;33.10;;;;;;5090729;28;20113;-58
2022/04/15 10:36:09;;;;;;;11.27;2.00;;;18.10;33.40;;;;;;5088133;28;20178;-61
2022/04/15 10:38:35;;;;;;;10.52;2.47;;;18.10;33.60;;;;;;5073149;28;20080;-60
2022/04/15 10:41:16;;;;;;;;;;;18.20;33.80;;;;;;5090278;28;20142;-60
2022/04/15 10:43:59;;;;;;;18.27;3.03;;;18.10;34.20;;;;;;5090909;28;19957;-59
2022/04/15 10:46:35;;;;;;;16.58;3.22;;;18.00;34.30;;;;;;5089554;28;20151;-59
2022/04/15 10:49:18;;;;;;;9.05;2.63;;;17.90;33.90;;;;;;5088058;28;20183;-58
2022/04/15 10:51:45;;;;;;;13.77;2.70;;;17.70;34.50;;;;;;5088512;28;20141;-59
2022/04/15 10:54:36;;;;;;;11.93;2.47;;;17.70;35.30;;;;;;5087857;28;20076;-60
2022/04/15 10:57:03;;;;;;;16.02;2.33;;;17.70;35.10;;;;;;5087300;28;20071;-60
2022/04/15 11:02:35;;;;;;;9.35;3.13;;;17.60;35.10;;;;;;5088615;28;20163;-61
2022/04/15 11:05:01;;;;;;;23.02;4.38;;;17.60;35.20;;;;;;5087126;28;20099;-61
2022/04/15 11:07:40;;;;;;;21.15;4.07;;;17.50;35.20;;;;;;5089757;28;20077;-62
2022/04/15 11:10:38;;;;;;;25.85;5.72;;;17.50;35.30;;;;;;5087719;28;20083;-61
2022/04/15 11:13:05;;;;;;;41.80;8.13;;;17.50;35.30;;;;;;5077120;28;20507;-59
2022/04/15 11:16:18;;;;;;;34.00;8.13;;;17.50;36.20;;;;;;5087235;28;20076;-60
2022/04/15 11:18:56;;;;;;;47.22;11.63;;;17.40;36.10;;;;;;5087022;28;20080;-57
2022/04/15 11:21:23;;;;;;;40.42;11.50;;;17.30;36.80;;;;;;5071738;28;20409;-62
2022/04/15 11:23:53;;;;;;;52.22;11.95;;;17.30;37.00;;;;;;5087412;28;20069;-60
2022/04/15 11:26:27;;;;;;;52.45;12.25;;;17.30;36.60;;;;;;5086683;28;20069;-59
2022/04/15 11:28:55;;;;;;;49.40;12.32;;;17.20;36.80;;;;;;5070521;28;20108;-60
2022/04/15 11:31:22;;;;;;;53.15;13.23;;;17.20;37.50;;;;;;5087826;28;20083;-58
2022/04/15 11:33:48;;;;;;;56.60;14.63;;;17.00;37.20;;;;;;5086845;28;20591;-62
2022/04/15 11:36:15;;;;;;;60.97;15.60;;;17.10;37.50;;;;;;5087816;28;20167;-60
2022/04/15 11:38:43;;;;;;;82.13;17.70;;;17.10;37.60;;;;;;5087600;28;20089;-63
2022/04/15 11:41:10;;;;;;;68.88;17.65;;;17.00;38.10;;;;;;5086519;28;20080;-60
2022/04/15 11:43:36;;;;;;;58.50;18.88;;;16.90;38.50;;;;;;5071413;28;20121;-60
2022/04/15 11:46:02;;;;;;;;;;;16.90;38.70;;;;;;5088195;28;20073;-61
2022/04/15 11:48:29;;;;;;;80.13;23.90;;;16.80;38.60;;;;;;5087974;28;19958;-61
2022/04/15 11:50:55;;;;;;;74.00;24.63;;;16.80;38.90;;;;;;5089463;28;20065;-61
2022/04/15 11:53:22;;;;;;;;;;;16.70;39.30;;;;;;5071464;28;20526;-60
2022/04/15 11:55:58;;;;;;;76.10;28.95;;;16.80;39.20;;;;;;5086384;28;20058;-59
2022/04/15 11:58:31;;;;;;;85.53;30.17;;;16.70;39.90;;;;;;5088662;28;20137;-62
2022/04/15 12:00:59;;;;;;;68.75;27.60;;;16.70;39.60;;;;;;5086370;28;20152;-63
2022/04/15 12:03:27;;;;;;;79.10;26.42;;;16.50;39.20;;;;;;5069847;28;20154;-61
2022/04/15 12:05:57;;;;;;;79.70;26.17;;;16.60;40.40;;;;;;5088051;28;20076;-57
2022/04/15 12:08:24;;;;;;;79.82;27.30;;;16.50;41.00;;;;;;5087471;28;20130;-62
2022/04/15 12:10:53;;;;;;;80.70;26.15;;;16.40;40.60;;;;;;5086536;28;20069;-59
2022/04/15 12:13:20;;;;;;;73.78;24.48;;;16.50;40.20;;;;;;5087884;28;20096;-57
2022/04/15 12:15:47;;;;;;;79.18;25.00;;;16.50;39.90;;;;;;5087375;28;20443;-58
2022/04/15 12:18:14;;;;;;;78.43;23.65;;;16.40;39.70;;;;;;5086773;28;20093;-58
2022/04/15 12:20:41;;;;;;;66.78;22.70;;;16.50;39.70;;;;;;5087472;28;20083;-62
2022/04/15 12:23:14;;;;;;;68.72;23.33;;;16.40;39.90;;;;;;5086707;28;20067;-59
2022/04/15 12:31:34;;;;;;;59.88;16.85;;;16.40;41.20;;;;;;5087943;28;20140;-58
2022/04/15 12:34:01;;;;;;;63.47;17.80;;;16.40;41.70;;;;;;5086323;28;20073;-57
2022/04/15 12:36:48;;;;;;;61.45;15.85;;;16.40;41.80;;;;;;5090564;28;20163;-60
2022/04/15 12:39:15;;;;;;;53.90;16.55;;;16.40;42.00;;;;;;5092839;28;20088;-62
2022/04/15 12:41:48;;;;;;;53.22;13.95;;;16.40;42.50;;;;;;5090701;28;20075;-60
2022/04/15 12:44:17;;;;;;;56.35;14.25;;;16.40;42.90;;;;;;5057033;28;20073;-62
2022/04/15 12:46:46;;;;;;;52.92;14.43;;;16.30;42.50;;;;;;5091328;28;20084;-58
2022/04/15 12:49:23;;;;;;;70.97;15.18;;;16.30;43.10;;;;;;5090988;28;20538;-59
2022/04/15 12:51:49;;;;;;;54.80;13.02;;;16.30;43.70;;;;;;5088662;28;20440;-60
2022/04/15 12:54:15;;;;;;;;;;;16.20;43.20;;;;;;5090656;28;20561;-60